createdAt,value
2022-10-25T00:02:32.458Z,60.90
2022-10-25T00:05:25.137Z,60.90
2022-10-25T00:08:19.709Z,60.90
2022-10-25T00:11:19.921Z,60.80
2022-10-25T00:14:18.503Z,60.80
2022-10-25T00:17:11.078Z,60.80
2022-10-25T00:20:04.708Z,60.70
2022-10-25T00:22:58.759Z,60.60
2022-10-25T00:26:02.387Z,60.60
2022-10-25T00:28:55.768Z,60.50
2022-10-25T00:31:49.210Z,60.50
2022-10-25T00:34:42.363Z,60.50
2022-10-25T00:37:37.052Z,60.50
2022-10-25T00:40:30.316Z,60.50
2022-10-25T00:43:39.099Z,60.50
2022-10-25T00:46:33.133Z,60.50
2022-10-25T00:49:26.354Z,60.50
2022-10-25T00:52:19.909Z,60.40
2022-10-25T00:55:16.519Z,60.40
2022-10-25T00:58:13.714Z,60.40
2022-10-25T01:01:10.638Z,60.30
2022-10-25T01:04:08.607Z,60.30
2022-10-25T01:07:02.603Z,60.30
2022-10-25T01:09:55.784Z,60.20
2022-10-25T01:12:51.999Z,60.10
2022-10-25T01:15:57.088Z,60.10
2022-10-25T01:18:59.559Z,60.10
2022-10-25T01:21:56.182Z,60.10
2022-10-25T01:25:16.246Z,60.10
2022-10-25T01:28:14.751Z,60.10
2022-10-25T01:31:28.280Z,60.00
2022-10-25T01:34:27.685Z,60.10
2022-10-25T01:37:26.977Z,60.00
2022-10-25T01:40:26.026Z,60.10
2022-10-25T01:43:29.968Z,60.00
2022-10-25T01:46:30.423Z,60.00
2022-10-25T01:49:29.807Z,60.00
2022-10-25T01:52:24.600Z,60.00
2022-10-25T01:55:19.544Z,60.00
2022-10-25T01:58:23.286Z,60.00
2022-10-25T02:01:26.651Z,60.00
2022-10-25T02:04:30.631Z,60.00
2022-10-25T02:07:29.632Z,60.10
2022-10-25T02:10:30.113Z,60.00
2022-10-25T02:13:28.681Z,60.10
2022-10-25T02:16:25.307Z,60.10
2022-10-25T02:19:23.440Z,60.10
2022-10-25T02:22:18.691Z,60.10
2022-10-25T02:25:13.157Z,60.10
2022-10-25T02:28:09.827Z,60.10
2022-10-25T02:31:03.519Z,60.10
2022-10-25T02:33:56.636Z,60.10
2022-10-25T02:36:51.510Z,60.10
2022-10-25T02:39:46.055Z,60.20
2022-10-25T02:46:58.939Z,60.20
2022-10-25T02:49:52.492Z,60.10
2022-10-25T02:52:47.149Z,60.20
2022-10-25T02:55:40.425Z,60.10
2022-10-25T02:58:36.768Z,60.10
2022-10-25T03:01:29.596Z,60.10
2022-10-25T03:04:22.268Z,60.10
2022-10-25T03:07:15.354Z,60.10
2022-10-25T03:10:10.551Z,60.00
2022-10-25T03:13:03.753Z,60.00
2022-10-25T03:15:56.780Z,60.00
2022-10-25T03:18:49.334Z,60.10
2022-10-25T03:21:42.158Z,60.00
2022-10-25T03:24:35.628Z,60.00
2022-10-25T03:27:29.984Z,60.00
2022-10-25T03:30:23.196Z,60.00
2022-10-25T03:33:16.657Z,60.00
2022-10-25T03:36:10.249Z,60.00
2022-10-25T03:39:03.719Z,60.00
2022-10-25T03:41:56.404Z,60.10
2022-10-25T03:44:51.523Z,60.00
2022-10-25T03:47:44.777Z,59.90
2022-10-25T03:50:38.653Z,59.90
2022-10-25T03:53:32.202Z,60.00
2022-10-25T03:56:25.681Z,59.90
2022-10-25T03:59:18.501Z,60.00
2022-10-25T04:02:12.749Z,60.00
2022-10-25T04:05:06.706Z,59.90
2022-10-25T04:07:59.643Z,59.90
2022-10-25T04:10:52.468Z,59.80
2022-10-25T04:13:45.393Z,59.80
2022-10-25T04:16:38.524Z,59.80
2022-10-25T04:19:32.559Z,59.80
2022-10-25T04:22:25.305Z,59.80
2022-10-25T04:25:18.639Z,59.80
2022-10-25T04:28:11.433Z,59.80
2022-10-25T04:31:04.164Z,59.70
2022-10-25T04:33:57.725Z,59.70
2022-10-25T04:36:52.229Z,59.70
2022-10-25T04:39:46.172Z,59.70
2022-10-25T04:42:39.270Z,59.70
2022-10-25T04:45:32.623Z,59.70
2022-10-25T04:48:25.442Z,59.70
2022-10-25T04:51:19.021Z,59.70
2022-10-25T04:54:15.499Z,59.70
2022-10-25T04:57:08.525Z,59.60
2022-10-25T05:00:01.118Z,59.60
2022-10-25T05:02:54.924Z,59.60
2022-10-25T05:05:48.752Z,59.60
2022-10-25T05:08:44.135Z,59.50
2022-10-25T05:11:39.052Z,59.50
2022-10-25T05:14:32.516Z,59.40
2022-10-25T05:17:25.203Z,59.50
2022-10-25T05:20:18.798Z,59.50
2022-10-25T05:23:11.389Z,59.30
2022-10-25T05:26:06.888Z,59.40
2022-10-25T05:29:00.933Z,59.40
2022-10-25T05:31:54.523Z,59.30
2022-10-25T05:34:47.344Z,59.30
2022-10-25T05:37:40.655Z,59.30
2022-10-25T05:40:33.924Z,59.20
2022-10-25T05:43:28.257Z,59.30
2022-10-25T05:46:24.862Z,59.20
2022-10-25T05:49:17.841Z,59.30
2022-10-25T05:52:11.228Z,59.20
2022-10-25T05:55:05.173Z,59.10
2022-10-25T05:57:59.281Z,59.00
2022-10-25T06:00:52.659Z,59.10
2022-10-25T06:03:49.080Z,59.10
2022-10-25T06:06:44.267Z,59.10
2022-10-25T06:09:37.570Z,59.10
2022-10-25T06:12:30.698Z,59.10
2022-10-25T06:15:23.385Z,59.10
2022-10-25T06:18:16.756Z,59.10
2022-10-25T06:21:12.785Z,59.00
2022-10-25T06:24:06.318Z,59.00
2022-10-25T06:26:59.837Z,59.00
2022-10-25T06:29:52.685Z,59.00
2022-10-25T06:32:45.780Z,58.80
2022-10-25T06:35:39.977Z,58.60
2022-10-25T06:38:35.145Z,58.50
2022-10-25T06:41:31.370Z,58.40
2022-10-25T06:44:24.667Z,58.30
2022-10-25T06:47:18.215Z,58.20
2022-10-25T06:50:11.682Z,58.10
2022-10-25T06:53:04.878Z,58.00
2022-10-25T06:56:04.661Z,58.00
2022-10-25T06:58:59.117Z,58.00
2022-10-25T07:01:52.582Z,58.00
2022-10-25T07:04:45.346Z,58.20
2022-10-25T07:07:38.538Z,58.30
2022-10-25T07:10:31.906Z,58.40
2022-10-25T07:13:26.752Z,58.50
2022-10-25T07:16:21.198Z,58.60
2022-10-25T07:19:14.594Z,58.70
2022-10-25T07:22:07.699Z,58.70
2022-10-25T07:25:00.562Z,58.80
2022-10-25T07:27:54.184Z,58.90
2022-10-25T07:30:49.620Z,58.80
2022-10-25T07:33:42.929Z,58.90
2022-10-25T07:36:35.716Z,59.60
2022-10-25T07:39:28.786Z,59.10
2022-10-25T07:42:21.831Z,59.00
2022-10-25T07:45:17.384Z,59.20
2022-10-25T07:48:15.284Z,59.10
2022-10-25T07:51:11.923Z,59.20
2022-10-25T07:54:06.916Z,59.30
2022-10-25T07:57:01.246Z,59.30
2022-10-25T07:59:54.833Z,60.00
2022-10-25T08:02:47.571Z,59.30
2022-10-25T08:05:44.311Z,59.30
2022-10-25T08:08:38.178Z,59.30
2022-10-25T08:11:32.032Z,59.40
2022-10-25T08:14:25.750Z,59.30
2022-10-25T08:17:18.402Z,59.40
2022-10-25T08:20:11.974Z,59.30
2022-10-25T08:23:07.050Z,59.40
2022-10-25T08:26:00.919Z,59.40
2022-10-25T08:28:54.325Z,59.40
2022-10-25T08:31:48.327Z,59.40
2022-10-25T08:34:41.822Z,59.50
2022-10-25T08:37:34.983Z,59.50
2022-10-25T08:40:37.853Z,59.50
2022-10-25T08:43:54.698Z,59.50
2022-10-25T08:46:56.358Z,59.50
2022-10-25T08:49:56.712Z,59.60
2022-10-25T08:52:53.797Z,59.60
2022-10-25T08:56:04.971Z,59.60
2022-10-25T08:59:03.148Z,59.50
2022-10-25T09:02:00.436Z,59.60
2022-10-25T09:04:54.652Z,59.60
2022-10-25T09:08:03.547Z,59.60
2022-10-25T09:11:09.450Z,59.50
2022-10-25T09:14:06.533Z,59.60
2022-10-25T09:17:07.892Z,59.60
2022-10-25T09:20:06.439Z,59.60
2022-10-25T09:23:06.972Z,59.70
2022-10-25T09:26:08.169Z,59.70
2022-10-25T09:29:06.227Z,59.70
2022-10-25T09:32:01.263Z,59.60
2022-10-25T09:34:55.714Z,59.60
2022-10-25T09:37:52.199Z,59.70
2022-10-25T09:40:49.995Z,59.70
2022-10-25T09:43:50.172Z,59.70
2022-10-25T09:46:49.844Z,59.80
2022-10-25T09:49:50.224Z,59.60
2022-10-25T09:52:55.127Z,59.70
2022-10-25T09:55:53.192Z,59.70
2022-10-25T09:58:48.989Z,59.80
2022-10-25T10:01:42.922Z,59.90
2022-10-25T10:04:37.936Z,59.90
2022-10-25T10:07:35.017Z,59.80
2022-10-25T10:10:34.044Z,60.00
2022-10-25T10:13:33.583Z,59.80
2022-10-25T10:16:31.531Z,59.80
2022-10-25T10:19:26.326Z,59.60
2022-10-25T10:22:19.620Z,59.70
2022-10-25T10:25:18.304Z,59.70
2022-10-25T10:28:15.918Z,59.70
2022-10-25T10:31:08.925Z,59.80
2022-10-25T10:34:04.089Z,59.80
2022-10-25T10:37:06.905Z,60.10
2022-10-25T10:40:01.249Z,60.10
2022-10-25T10:42:57.026Z,60.90
2022-10-25T10:45:52.973Z,61.10
2022-10-25T10:48:47.381Z,61.00
2022-10-25T10:51:45.119Z,61.00
2022-10-25T10:54:47.267Z,61.20
2022-10-25T10:57:40.604Z,61.10
2022-10-25T11:00:35.210Z,61.00
2022-10-25T11:03:59.806Z,60.90
2022-10-25T11:07:13.298Z,60.80
2022-10-25T11:10:25.336Z,60.80
2022-10-25T11:13:20.639Z,60.70
2022-10-25T11:16:47.107Z,60.80
2022-10-25T11:20:08.315Z,60.90
2022-10-25T11:23:07.915Z,60.90
2022-10-25T11:26:11.751Z,61.40
2022-10-25T11:29:11.241Z,61.60
2022-10-25T11:32:20.662Z,61.50
2022-10-25T11:35:32.843Z,61.40
2022-10-25T11:38:34.724Z,61.10
2022-10-25T11:41:37.697Z,61.30
2022-10-25T11:44:51.156Z,61.20
2022-10-25T11:47:49.910Z,61.20
2022-10-25T11:50:49.583Z,60.60
2022-10-25T11:54:11.259Z,60.90
2022-10-25T11:57:15.981Z,60.80
2022-10-25T12:00:16.757Z,60.80
2022-10-25T12:03:24.396Z,60.60
2022-10-25T12:06:24.328Z,60.60
2022-10-25T12:09:30.078Z,60.40
2022-10-25T12:12:27.112Z,60.50
2022-10-25T12:15:23.587Z,60.10
2022-10-25T12:18:27.617Z,60.30
2022-10-25T12:21:27.103Z,61.10
2022-10-25T12:24:24.224Z,60.30
2022-10-25T12:27:18.477Z,60.00
2022-10-25T12:30:16.293Z,59.80
2022-10-25T12:33:16.915Z,59.90
2022-10-25T12:36:16.649Z,59.80
2022-10-25T12:39:17.420Z,59.70
2022-10-25T12:42:17.203Z,59.70
2022-10-25T12:45:37.957Z,59.50
2022-10-25T12:48:58.134Z,59.50
2022-10-25T12:52:05.074Z,59.60
2022-10-25T12:55:26.467Z,59.20
2022-10-25T12:58:37.677Z,59.40
2022-10-25T13:01:48.499Z,59.30
2022-10-25T13:05:12.606Z,59.30
2022-10-25T13:08:08.058Z,59.20
2022-10-25T13:11:03.422Z,59.30
2022-10-25T13:13:58.205Z,59.90
2022-10-25T13:16:50.948Z,59.30
2022-10-25T13:19:59.769Z,59.50
2022-10-25T13:22:53.224Z,59.30
2022-10-25T13:26:08.072Z,59.20
2022-10-25T13:29:04.339Z,59.20
2022-10-25T13:32:10.335Z,59.10
2022-10-25T13:36:01.168Z,59.20
2022-10-25T13:39:05.269Z,59.10
2022-10-25T13:42:09.303Z,59.00
2022-10-25T13:45:10.884Z,59.00
2022-10-25T13:48:22.927Z,59.00
2022-10-25T13:51:17.959Z,59.00
2022-10-25T13:54:13.156Z,58.90
2022-10-25T13:57:05.868Z,59.50
2022-10-25T14:00:03.150Z,58.70
2022-10-25T14:03:22.103Z,58.90
2022-10-25T14:06:27.735Z,58.60
2022-10-25T14:09:26.525Z,58.70
2022-10-25T14:12:22.393Z,58.70
2022-10-25T14:15:22.715Z,58.60
2022-10-25T14:18:23.276Z,58.60
2022-10-25T14:21:16.295Z,58.60
2022-10-25T14:24:15.184Z,58.60
2022-10-25T14:27:26.720Z,58.60
2022-10-25T14:30:25.313Z,58.70
2022-10-25T14:33:26.026Z,58.70
2022-10-25T14:36:28.880Z,58.70
2022-10-25T14:39:24.170Z,58.70
2022-10-25T14:42:17.566Z,58.60
2022-10-25T14:45:20.146Z,58.70
2022-10-25T14:48:15.237Z,58.70
2022-10-25T14:51:14.936Z,58.80
2022-10-25T14:54:24.050Z,58.70
2022-10-25T14:57:23.958Z,58.80
2022-10-25T15:00:22.505Z,58.70
2022-10-25T15:03:16.029Z,58.80
2022-10-25T15:06:12.679Z,58.90
2022-10-25T15:12:24.533Z,59.60
2022-10-25T15:15:33.366Z,59.00
2022-10-25T15:18:35.388Z,59.10
2022-10-25T15:21:40.579Z,59.20
2022-10-25T15:24:45.199Z,59.20
2022-10-25T15:27:41.831Z,59.20
2022-10-25T15:30:36.594Z,59.30
2022-10-25T15:33:31.854Z,59.20
2022-10-25T15:36:27.062Z,59.30
2022-10-25T15:39:28.005Z,60.00
2022-10-25T15:42:22.416Z,59.40
2022-10-25T15:45:16.061Z,59.40
2022-10-25T15:48:14.406Z,59.40
2022-10-25T15:51:12.621Z,59.40
2022-10-25T15:54:06.468Z,59.50
2022-10-25T15:57:04.150Z,59.50
2022-10-25T15:59:57.264Z,59.50
2022-10-25T16:02:50.808Z,59.60
2022-10-25T16:05:45.070Z,59.60
2022-10-25T16:08:37.949Z,59.60
2022-10-25T16:11:31.476Z,59.60
2022-10-25T16:14:36.445Z,59.60
2022-10-25T16:17:30.147Z,59.70
2022-10-25T16:20:25.138Z,59.70
2022-10-25T16:23:22.505Z,59.70
2022-10-25T16:26:24.799Z,59.70
2022-10-25T16:29:20.245Z,59.70
2022-10-25T16:32:14.574Z,59.70
2022-10-25T16:35:09.390Z,59.70
2022-10-25T16:38:04.277Z,59.70
2022-10-25T16:40:57.642Z,59.70
2022-10-25T16:43:50.995Z,59.70
2022-10-25T16:46:45.226Z,59.70
2022-10-25T16:49:39.531Z,59.70
2022-10-25T16:52:33.478Z,59.70
2022-10-25T16:55:28.791Z,59.60
2022-10-25T16:58:21.954Z,60.30
2022-10-25T17:01:20.615Z,59.60
2022-10-25T17:04:14.695Z,59.60
2022-10-25T17:07:09.423Z,59.50
2022-10-25T17:10:02.429Z,59.50
2022-10-25T17:13:01.373Z,59.50
2022-10-25T17:15:54.556Z,59.50
2022-10-25T17:18:47.903Z,59.40
2022-10-25T17:21:41.506Z,59.30
2022-10-25T17:24:37.623Z,59.30
2022-10-25T17:27:32.093Z,59.30
2022-10-25T17:30:25.018Z,59.30
2022-10-25T17:33:18.584Z,59.30
2022-10-25T17:36:13.702Z,59.20
2022-10-25T17:39:08.373Z,59.20
2022-10-25T17:42:02.368Z,59.10
2022-10-25T17:44:55.478Z,59.10
2022-10-25T17:47:48.213Z,59.10
2022-10-25T17:50:43.060Z,59.10
2022-10-25T17:53:36.643Z,59.10
2022-10-25T17:59:30.255Z,59.10
2022-10-25T18:02:23.411Z,59.20
2022-10-25T18:05:20.540Z,59.20
2022-10-25T18:08:13.816Z,59.30
2022-10-25T18:11:11.541Z,59.30
2022-10-25T18:14:05.946Z,59.30
2022-10-25T18:17:00.998Z,59.30
2022-10-25T18:19:54.311Z,59.40
2022-10-25T18:22:47.434Z,59.30
2022-10-25T18:25:39.931Z,59.30
2022-10-25T18:28:34.578Z,59.30
2022-10-25T18:31:28.592Z,59.40
2022-10-25T18:34:23.712Z,59.40
2022-10-25T18:37:17.279Z,59.40
2022-10-25T18:40:11.480Z,59.40
2022-10-25T18:43:03.945Z,59.40
2022-10-25T18:45:57.957Z,59.40
2022-10-25T18:48:51.766Z,59.40
2022-10-25T18:51:46.904Z,59.50
2022-10-25T18:54:40.345Z,59.50
2022-10-25T18:57:33.218Z,59.50
2022-10-25T19:00:27.623Z,59.50
2022-10-25T19:03:20.924Z,59.60
2022-10-25T19:06:14.306Z,59.60
2022-10-25T19:09:09.935Z,59.60
2022-10-25T19:12:03.239Z,59.60
2022-10-25T19:14:55.935Z,59.60
2022-10-25T19:17:52.139Z,59.60
2022-10-25T19:20:46.562Z,59.60
2022-10-25T19:23:44.534Z,59.60
2022-10-25T19:26:39.135Z,59.60
2022-10-25T19:29:33.089Z,59.60
2022-10-25T19:32:26.561Z,59.30
2022-10-25T19:35:20.706Z,59.20
2022-10-25T19:38:14.535Z,59.00
2022-10-25T19:41:09.345Z,58.80
2022-10-25T19:44:03.363Z,58.60
2022-10-25T19:46:56.675Z,58.60
2022-10-25T19:49:50.358Z,58.60
2022-10-25T19:52:46.208Z,58.60
2022-10-25T19:55:39.094Z,58.70
2022-10-25T19:58:32.800Z,58.70
2022-10-25T20:01:28.065Z,58.70
2022-10-25T20:04:21.242Z,58.70
2022-10-25T20:07:14.380Z,58.70
2022-10-25T20:10:08.071Z,58.70
2022-10-25T20:13:01.299Z,58.80
2022-10-25T20:15:56.271Z,58.80
2022-10-25T20:18:50.761Z,58.90
2022-10-25T20:21:44.115Z,59.00
2022-10-25T20:24:37.126Z,59.00
2022-10-25T20:27:32.095Z,59.00
2022-10-25T20:30:25.451Z,59.00
2022-10-25T20:33:20.209Z,59.00
2022-10-25T20:36:15.225Z,59.00
2022-10-25T20:39:08.320Z,59.00
2022-10-25T20:42:01.580Z,58.90
2022-10-25T20:44:54.319Z,58.90
2022-10-25T20:47:50.535Z,59.60
2022-10-25T20:50:49.560Z,59.00
2022-10-25T20:53:44.316Z,59.00
2022-10-25T20:56:39.195Z,59.00
2022-10-25T20:59:32.846Z,59.00
2022-10-25T21:02:26.091Z,59.00
2022-10-25T21:05:19.547Z,59.00
2022-10-25T21:08:12.808Z,59.00
2022-10-25T21:11:10.733Z,59.00
2022-10-25T21:14:04.283Z,59.10
2022-10-25T21:16:57.559Z,59.10
2022-10-25T21:19:50.147Z,59.00
2022-10-25T21:22:43.448Z,59.00
2022-10-25T21:25:36.374Z,59.00
2022-10-25T21:28:35.432Z,59.00
2022-10-25T21:31:28.142Z,58.90
2022-10-25T21:34:21.466Z,58.90
2022-10-25T21:37:14.844Z,58.90
2022-10-25T21:40:09.313Z,59.00
2022-10-25T21:43:02.413Z,59.00
2022-10-25T21:45:58.823Z,59.00
2022-10-25T21:48:52.960Z,59.00
2022-10-25T21:51:47.051Z,59.00
2022-10-25T21:54:40.088Z,59.00
2022-10-25T21:57:32.971Z,59.00
2022-10-25T22:00:26.243Z,59.00
2022-10-25T22:03:22.060Z,59.00
2022-10-25T22:06:19.214Z,58.90
2022-10-25T22:09:12.583Z,58.90
2022-10-25T22:12:06.319Z,58.90
2022-10-25T22:14:59.047Z,58.90
2022-10-25T22:17:51.984Z,58.90
2022-10-25T22:20:54.455Z,58.90
2022-10-25T22:23:47.479Z,58.90
2022-10-25T22:26:42.270Z,58.90
2022-10-25T22:29:35.104Z,58.90
2022-10-25T22:32:28.429Z,58.90
2022-10-25T22:35:21.492Z,58.90
2022-10-25T22:38:15.545Z,58.90
2022-10-25T22:41:10.990Z,58.90
2022-10-25T22:44:04.465Z,58.90
2022-10-25T22:46:57.232Z,58.90
2022-10-25T22:49:50.266Z,58.80
2022-10-25T22:55:43.003Z,58.90
2022-10-25T22:58:38.130Z,58.80
2022-10-25T23:01:32.606Z,58.80
2022-10-25T23:04:25.556Z,58.80
2022-10-25T23:07:18.288Z,58.70
2022-10-25T23:10:11.888Z,58.80
2022-10-25T23:13:06.880Z,58.80
2022-10-25T23:16:00.635Z,58.70
2022-10-25T23:18:53.440Z,58.70
2022-10-25T23:21:46.447Z,58.70
2022-10-25T23:24:39.653Z,58.70
2022-10-25T23:27:32.509Z,58.70
2022-10-25T23:30:28.236Z,58.60
2022-10-25T23:33:21.281Z,58.70
2022-10-25T23:36:16.315Z,58.60
2022-10-25T23:39:11.695Z,58.60
2022-10-25T23:42:04.800Z,58.60
2022-10-25T23:44:58.384Z,58.60
2022-10-25T23:47:53.093Z,58.60
2022-10-25T23:50:46.864Z,58.60
2022-10-25T23:53:41.149Z,58.60
2022-10-25T23:56:34.527Z,58.60
2022-10-25T23:59:27.442Z,58.60
